createdAt,value
2019-01-10T00:00:14.486Z,100350.13
2019-01-10T00:02:44.694Z,100350.13
2019-01-10T00:05:13.188Z,100364.38
2019-01-10T00:07:41.213Z,100365.20
2019-01-10T00:10:10.463Z,100369.91
2019-01-10T00:12:39.638Z,100369.44
2019-01-10T00:15:11.748Z,100370.27
2019-01-10T00:17:39.929Z,100363.44
2019-01-10T00:20:09.123Z,100363.34
2019-01-10T00:22:37.169Z,100369.34
2019-01-10T00:25:07.361Z,100374.06
2019-01-10T00:27:35.372Z,100380.06
2019-01-10T00:30:07.370Z,100384.77
2019-01-10T00:32:35.428Z,100380.89
2019-01-10T00:35:03.852Z,100377.00
2019-01-10T00:37:31.854Z,100380.06
2019-01-10T00:39:59.891Z,100380.53
2019-01-10T00:42:27.937Z,100379.72
2019-01-10T00:44:56.235Z,100384.08
2019-01-10T00:47:24.273Z,100387.48
2019-01-10T00:49:52.310Z,100391.38
2019-01-10T00:52:20.322Z,100393.59
2019-01-10T00:54:48.319Z,100398.77
2019-01-10T00:57:16.368Z,100405.37
2019-01-10T00:59:44.387Z,100400.31
2019-01-10T01:02:12.534Z,100394.42
2019-01-10T01:04:41.143Z,100407.47
2019-01-10T01:07:09.182Z,100416.31
2019-01-10T01:09:38.216Z,100420.80
2019-01-10T01:12:06.215Z,100428.22
2019-01-10T01:14:34.235Z,100432.66
2019-01-10T01:17:02.481Z,100438.31
2019-01-10T01:19:30.530Z,100444.80
2019-01-10T01:21:58.565Z,100444.91
2019-01-10T01:24:26.874Z,100454.33
2019-01-10T01:26:54.889Z,100454.33
2019-01-10T01:29:22.927Z,100456.56
2019-01-10T01:31:50.956Z,100460.92
2019-01-10T01:34:18.997Z,100459.16
2019-01-10T01:36:47.002Z,100466.11
2019-01-10T01:39:15.061Z,100463.52
2019-01-10T01:41:43.081Z,100465.28
2019-01-10T01:44:11.069Z,100467.41
2019-01-10T01:46:39.955Z,100473.53
2019-01-10T01:49:07.969Z,100470.94
2019-01-10T01:51:36.005Z,100476.23
2019-01-10T01:54:04.141Z,100477.41
2019-01-10T01:56:32.148Z,100486.95
2019-01-10T01:59:00.197Z,100490.36
2019-01-10T02:01:28.284Z,100496.02
2019-01-10T02:03:56.306Z,100495.55
2019-01-10T02:06:24.296Z,100499.78
2019-01-10T02:08:52.332Z,100506.27
2019-01-10T02:11:20.338Z,100501.08
2019-01-10T02:13:48.513Z,100509.67
2019-01-10T02:16:16.537Z,100508.03
2019-01-10T02:18:44.557Z,100510.73
2019-01-10T02:21:12.570Z,100511.56
2019-01-10T02:23:40.583Z,100512.38
2019-01-10T02:26:08.541Z,100517.22
2019-01-10T02:28:36.846Z,100521.57
2019-01-10T02:31:05.516Z,100521.66
2019-01-10T02:33:33.573Z,100522.48
2019-01-10T02:36:01.576Z,100522.05
2019-01-10T02:38:29.626Z,100523.78
2019-01-10T02:40:57.628Z,100524.25
2019-01-10T02:43:26.685Z,100525.55
2019-01-10T02:45:54.925Z,100522.48
2019-01-10T02:48:23.184Z,100516.00
2019-01-10T02:50:51.372Z,100517.22
2019-01-10T02:53:19.380Z,100521.45
2019-01-10T02:55:47.458Z,100520.52
2019-01-10T02:58:15.456Z,100521.34
2019-01-10T03:00:43.509Z,100520.98
2019-01-10T03:03:11.556Z,100524.28
2019-01-10T03:05:39.743Z,100520.27
2019-01-10T03:08:08.067Z,100514.65
2019-01-10T03:10:36.410Z,100505.94
2019-01-10T03:13:05.111Z,100501.70
2019-01-10T03:15:33.137Z,100502.99
2019-01-10T03:18:01.132Z,100508.17
2019-01-10T03:20:29.161Z,100510.77
2019-01-10T03:22:57.158Z,100506.88
2019-01-10T03:25:25.184Z,100505.94
2019-01-10T03:27:53.205Z,100502.88
2019-01-10T03:30:21.319Z,100501.93
2019-01-10T03:32:49.429Z,100500.64
2019-01-10T03:35:17.465Z,100505.34
2019-01-10T03:37:45.499Z,100501.81
2019-01-10T03:40:19.631Z,100496.16
2019-01-10T03:42:47.632Z,100499.10
2019-01-10T03:45:18.109Z,100495.56
2019-01-10T03:47:46.103Z,100489.95
2019-01-10T03:50:15.137Z,100493.36
2019-01-10T03:52:43.217Z,100486.06
2019-01-10T03:55:11.305Z,100482.41
2019-01-10T03:57:39.369Z,100484.17
2019-01-10T04:00:21.428Z,100487.58
2019-01-10T04:02:49.408Z,100490.52
2019-01-10T04:05:18.488Z,100493.94
2019-01-10T04:07:46.637Z,100490.88
2019-01-10T04:10:15.296Z,100491.70
2019-01-10T04:12:43.300Z,100492.52
2019-01-10T04:15:11.560Z,100492.52
2019-01-10T04:17:39.562Z,100495.59
2019-01-10T04:20:09.311Z,100497.36
2019-01-10T04:22:37.349Z,100503.36
2019-01-10T04:25:07.528Z,100504.66
2019-01-10T04:27:35.535Z,100504.66
2019-01-10T04:30:06.299Z,100502.06
2019-01-10T04:32:34.658Z,100502.89
2019-01-10T04:35:03.196Z,100505.02
2019-01-10T04:37:31.327Z,100508.90
2019-01-10T04:39:59.673Z,100503.27
2019-01-10T04:42:27.820Z,100503.72
2019-01-10T04:44:55.913Z,100508.81
2019-01-10T04:47:23.960Z,100504.92
2019-01-10T04:49:52.056Z,100500.56
2019-01-10T04:52:20.073Z,100503.16
2019-01-10T04:54:48.141Z,100510.34
2019-01-10T04:57:16.273Z,100507.74
2019-01-10T04:59:44.304Z,100512.58
2019-01-10T05:02:18.252Z,100509.63
2019-01-10T05:04:42.224Z,100516.94
2019-01-10T05:07:10.248Z,100522.47
2019-01-10T05:09:38.263Z,100518.35
2019-01-10T05:12:06.307Z,100527.77
2019-01-10T05:14:34.297Z,100525.66
2019-01-10T05:17:02.325Z,100524.00
2019-01-10T05:19:30.332Z,100526.59
2019-01-10T05:21:58.413Z,100526.59
2019-01-10T05:24:26.390Z,100528.33
2019-01-10T05:26:54.461Z,100529.54
2019-01-10T05:29:22.482Z,100530.84
2019-01-10T05:32:27.429Z,100535.55
2019-01-10T05:35:09.163Z,100536.38
2019-01-10T05:37:37.458Z,100536.84
2019-01-10T05:40:07.835Z,100552.04
2019-01-10T05:42:36.140Z,100548.16
2019-01-10T05:45:05.594Z,100560.72
2019-01-10T05:47:34.510Z,100565.08
2019-01-10T05:50:02.949Z,100566.97
2019-01-10T05:52:31.244Z,100570.03
2019-01-10T05:54:59.552Z,100573.56
2019-01-10T05:57:27.587Z,100575.69
2019-01-10T05:59:55.601Z,100578.75
2019-01-10T06:02:23.631Z,100582.63
2019-01-10T06:04:51.623Z,100578.39
2019-01-10T06:07:20.691Z,100577.57
2019-01-10T06:09:48.711Z,100583.66
2019-01-10T06:12:16.735Z,100585.42
2019-01-10T06:14:44.764Z,100584.61
2019-01-10T06:17:12.800Z,100588.49
2019-01-10T06:19:40.814Z,100586.02
2019-01-10T06:22:08.827Z,100585.20
2019-01-10T06:24:36.832Z,100586.96
2019-01-10T06:27:04.886Z,100593.79
2019-01-10T06:29:32.942Z,100597.33
2019-01-10T06:32:00.948Z,100598.62
2019-01-10T06:34:28.957Z,100606.98
2019-01-10T06:36:57.018Z,100611.06
2019-01-10T06:39:25.064Z,100614.75
2019-01-10T06:41:53.084Z,100614.75
2019-01-10T06:44:21.584Z,100615.58
2019-01-10T06:46:50.690Z,100621.11
2019-01-10T06:49:18.730Z,100622.41
2019-01-10T06:51:46.751Z,100618.17
2019-01-10T06:54:15.307Z,100617.81
2019-01-10T06:56:44.542Z,100616.13
2019-01-10T06:59:12.708Z,100628.17
2019-01-10T07:01:41.181Z,100632.06
2019-01-10T07:04:09.211Z,100629.56
2019-01-10T07:06:37.811Z,100630.85
2019-01-10T07:09:09.808Z,100630.85
2019-01-10T07:11:38.172Z,100632.14
2019-01-10T07:14:06.154Z,100636.42
2019-01-10T07:16:35.181Z,100644.19
2019-01-10T07:19:03.229Z,100645.84
2019-01-10T07:21:54.929Z,100649.73
2019-01-10T07:24:24.715Z,100656.56
2019-01-10T07:26:58.149Z,100661.27
2019-01-10T07:29:27.174Z,100660.92
2019-01-10T07:31:59.404Z,100659.51
2019-01-10T07:34:27.445Z,100662.92
2019-01-10T07:36:55.464Z,100665.52
2019-01-10T07:39:23.470Z,100668.11
2019-01-10T07:41:51.532Z,100669.75
2019-01-10T07:44:24.150Z,100680.00
2019-01-10T07:46:52.437Z,100678.23
2019-01-10T07:49:23.231Z,100676.50
2019-01-10T07:51:51.617Z,100677.80
2019-01-10T07:54:19.588Z,100677.80
2019-01-10T07:56:47.610Z,100674.83
2019-01-10T07:59:15.610Z,100672.23
2019-01-10T08:01:44.053Z,100664.92
2019-01-10T08:04:12.136Z,100666.97
2019-01-10T08:06:40.180Z,100678.16
2019-01-10T08:09:09.368Z,100674.98
2019-01-10T08:11:37.810Z,100676.16
2019-01-10T08:14:06.695Z,100683.81
2019-01-10T08:16:35.425Z,100681.14
2019-01-10T08:19:04.473Z,100688.45
2019-01-10T08:21:32.471Z,100687.86
2019-01-10T08:24:00.708Z,100691.63
2019-01-10T08:26:28.737Z,100700.14
2019-01-10T08:28:56.794Z,100690.13
2019-01-10T08:31:24.832Z,100693.55
2019-01-10T08:33:53.116Z,100704.98
2019-01-10T08:36:21.225Z,100703.57
2019-01-10T08:38:49.264Z,100711.27
2019-01-10T08:41:17.536Z,100716.33
2019-01-10T08:43:45.545Z,100723.05
2019-01-10T08:46:13.605Z,100715.08
2019-01-10T08:48:41.647Z,100726.16
2019-01-10T08:51:10.308Z,100723.36
2019-01-10T08:53:38.320Z,100722.41
2019-01-10T08:56:06.350Z,100725.25
2019-01-10T08:58:34.413Z,100723.84
2019-01-10T09:01:02.450Z,100731.77
2019-01-10T09:03:30.470Z,100729.05
2019-01-10T09:06:07.839Z,100730.59
2019-01-10T09:08:28.435Z,100731.33
2019-01-10T09:10:56.525Z,100734.63
2019-01-10T09:13:24.592Z,100738.41
2019-01-10T09:15:52.596Z,100738.67
2019-01-10T09:18:20.641Z,100740.80
2019-01-10T09:20:48.734Z,100744.56
2019-01-10T09:23:16.761Z,100747.40
2019-01-10T09:25:44.753Z,100749.16
2019-01-10T09:28:12.789Z,100745.27
2019-01-10T09:30:40.849Z,100744.33
2019-01-10T09:33:09.712Z,100749.08
2019-01-10T09:35:38.115Z,100754.16
2019-01-10T09:38:06.118Z,100753.68
2019-01-10T09:40:34.111Z,100755.33
2019-01-10T09:43:02.170Z,100757.34
2019-01-10T09:45:30.220Z,100754.27
2019-01-10T09:47:58.241Z,100754.63
2019-01-10T09:50:26.308Z,100754.54
2019-01-10T09:52:54.450Z,100754.89
2019-01-10T09:55:22.439Z,100763.03
2019-01-10T09:57:50.456Z,100762.09
2019-01-10T10:00:27.104Z,100760.79
2019-01-10T10:02:55.134Z,100761.61
2019-01-10T10:05:23.143Z,100761.97
2019-01-10T10:07:51.144Z,100763.06
2019-01-10T10:10:19.301Z,100764.23
2019-01-10T10:12:48.386Z,100768.02
2019-01-10T10:15:17.497Z,100767.06
2019-01-10T10:17:45.488Z,100770.95
2019-01-10T10:20:16.919Z,100761.88
2019-01-10T10:22:45.085Z,100764.03
2019-01-10T10:25:13.384Z,100773.00
2019-01-10T10:27:42.497Z,100768.52
2019-01-10T10:30:14.481Z,100774.53
2019-01-10T10:32:42.504Z,100769.69
2019-01-10T10:35:12.073Z,100767.92
2019-01-10T10:37:40.150Z,100772.64
2019-01-10T10:40:14.516Z,100769.58
2019-01-10T10:42:42.689Z,100768.66
2019-01-10T10:45:15.854Z,100769.37
2019-01-10T10:47:43.914Z,100775.86
2019-01-10T10:50:16.354Z,100774.91
2019-01-10T10:52:44.688Z,100773.14
2019-01-10T10:55:12.895Z,100773.84
2019-01-10T10:57:41.154Z,100768.09
2019-01-10T11:00:14.616Z,100766.68
2019-01-10T11:02:42.627Z,100768.45
2019-01-10T11:05:13.427Z,100768.69
2019-01-10T11:07:41.449Z,100771.63
2019-01-10T11:10:11.809Z,100774.02
2019-01-10T11:12:39.801Z,100772.95
2019-01-10T11:15:09.187Z,100768.12
2019-01-10T11:17:37.284Z,100767.20
2019-01-10T11:20:09.366Z,100767.20
2019-01-10T11:22:37.355Z,100765.44
2019-01-10T11:25:10.972Z,100767.67
2019-01-10T11:27:39.001Z,100771.09
2019-01-10T11:30:09.426Z,100774.17
2019-01-10T11:32:37.424Z,100767.20
2019-01-10T11:35:05.641Z,100772.87
2019-01-10T11:37:33.655Z,100770.71
2019-01-10T11:40:01.695Z,100769.89
2019-01-10T11:42:29.719Z,100767.30
2019-01-10T11:44:57.737Z,100765.17
2019-01-10T11:47:25.909Z,100769.89
2019-01-10T11:49:53.943Z,100769.41
2019-01-10T11:52:21.969Z,100775.81
2019-01-10T11:54:50.089Z,100763.70
2019-01-10T11:57:18.126Z,100760.50
2019-01-10T11:59:46.225Z,100771.95
2019-01-10T12:02:14.218Z,100763.81
2019-01-10T12:04:42.235Z,100757.91
2019-01-10T12:07:10.321Z,100761.33
2019-01-10T12:09:39.299Z,100757.91
2019-01-10T12:12:07.308Z,100758.27
2019-01-10T12:14:35.324Z,100759.91
2019-01-10T12:17:03.402Z,100751.56
2019-01-10T12:19:31.470Z,100751.80
2019-01-10T12:21:59.444Z,100742.11
2019-01-10T12:24:27.484Z,100744.14
2019-01-10T12:26:55.489Z,100744.02
2019-01-10T12:29:23.595Z,100739.19
2019-01-10T12:31:51.652Z,100738.59
2019-01-10T12:34:20.046Z,100735.98
2019-01-10T12:36:48.141Z,100738.59
2019-01-10T12:39:16.487Z,100734.69
2019-01-10T12:41:44.489Z,100735.52
2019-01-10T12:44:12.519Z,100733.66
2019-01-10T12:46:40.510Z,100731.06
2019-01-10T12:49:08.522Z,100727.98
2019-01-10T12:51:36.561Z,100728.22
2019-01-10T12:54:04.643Z,100728.00
2019-01-10T12:56:32.701Z,100726.11
2019-01-10T12:59:00.762Z,100730.23
2019-01-10T13:01:28.787Z,100724.82
2019-01-10T13:03:56.786Z,100724.23
2019-01-10T13:06:24.844Z,100733.55
2019-01-10T13:08:52.904Z,100735.92
2019-01-10T13:11:20.929Z,100719.39
2019-01-10T13:13:49.205Z,100730.48
2019-01-10T13:16:17.229Z,100732.95
2019-01-10T13:18:45.262Z,100735.11
2019-01-10T13:21:13.788Z,100736.16
2019-01-10T13:23:41.787Z,100741.23
2019-01-10T13:26:09.837Z,100745.01
2019-01-10T13:28:38.137Z,100745.97
2019-01-10T13:31:07.206Z,100746.22
2019-01-10T13:33:35.200Z,100749.05
2019-01-10T13:36:04.810Z,100750.09
2019-01-10T13:38:32.870Z,100753.30
2019-01-10T13:41:01.121Z,100750.45
2019-01-10T13:43:29.150Z,100750.36
2019-01-10T13:45:57.160Z,100754.14
2019-01-10T13:48:25.155Z,100759.33
2019-01-10T13:50:53.205Z,100760.75
2019-01-10T13:53:21.202Z,100762.97
2019-01-10T13:58:16.922Z,100764.88
2019-01-10T14:00:44.987Z,100770.67
2019-01-10T14:03:13.798Z,100772.09
2019-01-10T14:05:42.147Z,100772.09
2019-01-10T14:08:10.148Z,100767.47
2019-01-10T14:10:38.244Z,100771.95
2019-01-10T14:13:06.287Z,100765.71
2019-01-10T14:15:34.827Z,100775.38
2019-01-10T14:18:03.782Z,100777.14
2019-01-10T14:20:31.975Z,100776.44
2019-01-10T14:23:00.018Z,100784.23
2019-01-10T14:25:28.176Z,100781.77
2019-01-10T14:27:59.939Z,100780.08
2019-01-10T14:30:38.010Z,100785.75
2019-01-10T14:33:10.287Z,100783.98
2019-01-10T14:35:38.294Z,100784.10
2019-01-10T14:38:06.303Z,100791.77
2019-01-10T14:40:34.396Z,100793.07
2019-01-10T14:43:02.376Z,100796.97
2019-01-10T14:45:31.201Z,100796.39
2019-01-10T14:48:01.911Z,100792.62
2019-01-10T14:50:29.208Z,100799.20
2019-01-10T14:52:57.509Z,100798.02
2019-01-10T14:55:25.810Z,100797.80
2019-01-10T14:57:53.835Z,100804.41
2019-01-10T15:00:23.257Z,100808.52
2019-01-10T15:02:51.490Z,100807.81
2019-01-10T15:05:20.534Z,100805.43
2019-01-10T15:07:48.896Z,100812.52
2019-01-10T15:10:16.885Z,100814.88
2019-01-10T15:12:46.041Z,100816.39
2019-01-10T15:15:17.406Z,100821.11
2019-01-10T15:17:45.473Z,100822.17
2019-01-10T15:20:17.466Z,100829.73
2019-01-10T15:22:45.516Z,100827.34
2019-01-10T15:25:14.530Z,100828.41
2019-01-10T15:27:42.557Z,100832.63
2019-01-10T15:30:15.550Z,100833.22
2019-01-10T15:32:43.564Z,100839.45
2019-01-10T15:35:11.881Z,100834.97
2019-01-10T15:37:39.922Z,100840.63
2019-01-10T15:40:12.851Z,100838.20
2019-01-10T15:42:41.838Z,100844.45
2019-01-10T15:45:11.382Z,100841.98
2019-01-10T15:47:39.545Z,100840.41
2019-01-10T15:50:10.447Z,100841.47
2019-01-10T15:52:39.440Z,100841.59
2019-01-10T15:55:08.639Z,100840.27
2019-01-10T15:57:36.730Z,100840.94
2019-01-10T16:00:08.283Z,100841.17
2019-01-10T16:02:36.353Z,100841.76
2019-01-10T16:05:04.802Z,100849.66
2019-01-10T16:07:32.835Z,100842.43
2019-01-10T16:10:01.093Z,100846.44
2019-01-10T16:12:29.170Z,100856.93
2019-01-10T16:14:57.258Z,100853.59
2019-01-10T16:17:25.623Z,100859.73
2019-01-10T16:19:53.904Z,100853.47
2019-01-10T16:22:22.078Z,100854.41
2019-01-10T16:24:50.329Z,100859.33
2019-01-10T16:27:18.187Z,100857.79
2019-01-10T16:29:46.261Z,100856.14
2019-01-10T16:32:14.280Z,100857.44
2019-01-10T16:34:42.401Z,100863.92
2019-01-10T16:37:10.488Z,100866.63
2019-01-10T16:39:38.873Z,100870.52
2019-01-10T16:42:06.964Z,100870.13
2019-01-10T16:44:35.140Z,100871.43
2019-01-10T16:47:03.101Z,100877.09
2019-01-10T16:49:31.214Z,100873.66
2019-01-10T16:51:59.465Z,100882.86
2019-01-10T16:54:27.705Z,100875.19
2019-01-10T16:56:55.714Z,100877.42
2019-01-10T16:59:23.750Z,100882.70
2019-01-10T17:01:51.732Z,100877.98
2019-01-10T17:04:20.097Z,100882.34
2019-01-10T17:06:48.143Z,100882.09
2019-01-10T17:09:17.727Z,100880.91
2019-01-10T17:11:46.097Z,100878.41
2019-01-10T17:14:14.254Z,100881.94
2019-01-10T17:16:42.333Z,100883.45
2019-01-10T17:19:10.352Z,100891.23
2019-01-10T17:21:38.378Z,100891.44
2019-01-10T17:24:07.116Z,100886.00
2019-01-10T17:26:35.148Z,100890.12
2019-01-10T17:29:03.272Z,100890.59
2019-01-10T17:31:31.285Z,100891.88
2019-01-10T17:33:59.323Z,100887.60
2019-01-10T17:36:27.591Z,100890.67
2019-01-10T17:38:57.216Z,100891.25
2019-01-10T17:41:25.230Z,100893.38
2019-01-10T17:43:53.472Z,100892.66
2019-01-10T17:46:21.521Z,100899.14
2019-01-10T17:48:49.610Z,100901.73
2019-01-10T17:51:19.630Z,100902.28
2019-01-10T17:53:47.820Z,100904.52
2019-01-10T17:56:15.857Z,100905.09
2019-01-10T17:58:43.892Z,100909.56
2019-01-10T18:01:11.952Z,100914.83
2019-01-10T18:03:40.531Z,100918.72
2019-01-10T18:06:09.529Z,100917.17
2019-01-10T18:08:37.634Z,100917.28
2019-01-10T18:11:05.620Z,100917.28
2019-01-10T18:13:33.686Z,100919.52
2019-01-10T18:16:01.776Z,100919.63
2019-01-10T18:18:30.223Z,100927.84
2019-01-10T18:20:59.889Z,100925.25
2019-01-10T18:23:27.997Z,100929.25
2019-01-10T18:25:56.165Z,100931.37
2019-01-10T18:28:24.676Z,100932.88
2019-01-10T18:30:53.737Z,100928.17
2019-01-10T18:33:22.950Z,100929.46
2019-01-10T18:35:51.027Z,100932.99
2019-01-10T18:38:19.062Z,100926.41
2019-01-10T18:40:47.133Z,100923.45
2019-01-10T18:43:15.346Z,100930.41
2019-01-10T18:45:44.288Z,100930.02
2019-01-10T18:48:12.443Z,100931.30
2019-01-10T18:50:40.520Z,100929.57
2019-01-10T18:53:08.835Z,100939.47
2019-01-10T18:55:37.042Z,100934.75
2019-01-10T18:58:08.508Z,100935.19
2019-01-10T19:00:36.567Z,100936.88
2019-01-10T19:03:04.701Z,100937.78
2019-01-10T19:05:32.795Z,100933.90
2019-01-10T19:08:01.194Z,100937.42
2019-01-10T19:10:29.243Z,100937.42
2019-01-10T19:12:57.708Z,100933.65
2019-01-10T19:15:25.874Z,100935.77
2019-01-10T19:17:53.962Z,100934.47
2019-01-10T19:20:25.284Z,100940.48
2019-01-10T19:22:54.474Z,100938.00
2019-01-10T19:25:22.640Z,100937.64
2019-01-10T19:27:50.667Z,100933.04
2019-01-10T19:30:22.195Z,100938.11
2019-01-10T19:32:50.375Z,100940.70
2019-01-10T19:35:20.743Z,100947.73
2019-01-10T19:37:48.864Z,100938.22
2019-01-10T19:40:18.277Z,100939.95
2019-01-10T19:42:46.402Z,100943.02
2019-01-10T19:45:16.885Z,100946.90
2019-01-10T19:47:44.969Z,100942.30
2019-01-10T19:50:17.067Z,100943.23
2019-01-10T19:52:45.142Z,100951.47
2019-01-10T19:55:14.755Z,100951.11
2019-01-10T19:57:43.968Z,100954.06
2019-01-10T20:00:43.538Z,100951.00
2019-01-10T20:03:11.633Z,100945.93
2019-01-10T20:05:39.729Z,100958.88
2019-01-10T20:08:08.006Z,100954.64
2019-01-10T20:10:36.176Z,100958.06
2019-01-10T20:13:05.245Z,100964.61
2019-01-10T20:15:33.384Z,100964.25
2019-01-10T20:18:01.565Z,100961.77
2019-01-10T20:20:36.641Z,100966.59
2019-01-10T20:23:09.173Z,100973.53
2019-01-10T20:25:39.411Z,100974.83
2019-01-10T20:28:07.541Z,100974.00
2019-01-10T20:30:35.925Z,100965.87
2019-01-10T20:33:04.465Z,100968.82
2019-01-10T20:35:32.835Z,100972.70
2019-01-10T20:38:00.916Z,100972.70
2019-01-10T20:40:29.266Z,100980.02
2019-01-10T20:42:57.602Z,100990.38
2019-01-10T20:45:25.747Z,100984.83
2019-01-10T20:47:53.953Z,100988.72
2019-01-10T20:50:22.003Z,100987.89
2019-01-10T20:52:50.383Z,100989.66
2019-01-10T20:55:19.216Z,100990.09
2019-01-10T20:57:47.453Z,100990.20
2019-01-10T21:00:19.302Z,100987.14
2019-01-10T21:02:47.808Z,100985.13
2019-01-10T21:05:15.852Z,100985.02
2019-01-10T21:07:46.430Z,100982.53
2019-01-10T21:10:14.936Z,100991.59
2019-01-10T21:12:43.110Z,100984.30
2019-01-10T21:15:15.238Z,100974.40
2019-01-10T21:17:43.491Z,100980.88
2019-01-10T21:20:12.523Z,100976.98
2019-01-10T21:22:40.602Z,100980.16
2019-01-10T21:25:09.230Z,100977.64
2019-01-10T21:27:37.507Z,100983.64
2019-01-10T21:30:08.806Z,100982.09
2019-01-10T21:32:40.824Z,100989.14
2019-01-10T21:35:07.018Z,100990.91
2019-01-10T21:37:35.148Z,100988.39
2019-01-10T21:40:05.406Z,100995.80
2019-01-10T21:42:33.498Z,100989.43
2019-01-10T21:45:01.533Z,101002.02
2019-01-10T21:47:29.841Z,100997.41
2019-01-10T21:49:57.951Z,101000.47
2019-01-10T21:52:26.051Z,100997.95
2019-01-10T21:54:54.340Z,101003.60
2019-01-10T21:57:22.800Z,101002.77
2019-01-10T21:59:50.850Z,101007.48
2019-01-10T22:02:18.932Z,101003.23
2019-01-10T22:04:47.074Z,101005.00
2019-01-10T22:07:15.089Z,100999.82
2019-01-10T22:09:43.184Z,101006.50
2019-01-10T22:12:12.524Z,101003.05
2019-01-10T22:14:40.560Z,101002.80
2019-01-10T22:17:08.573Z,101002.44
2019-01-10T22:19:36.583Z,101000.78
2019-01-10T22:22:04.770Z,101001.25
2019-01-10T22:24:32.810Z,101005.20
2019-01-10T22:27:00.877Z,101010.02
2019-01-10T22:29:28.848Z,100998.47
2019-01-10T22:31:56.881Z,101001.27
2019-01-10T22:34:24.886Z,101002.09
2019-01-10T22:36:53.057Z,100998.31
2019-01-10T22:39:21.595Z,100999.32
2019-01-10T22:41:49.649Z,100998.59
2019-01-10T22:44:17.699Z,100993.05
2019-01-10T22:46:45.705Z,100989.35
2019-01-10T22:49:13.736Z,100992.98
2019-01-10T22:51:41.756Z,100987.97
2019-01-10T22:54:09.806Z,100987.72
2019-01-10T22:56:37.829Z,100984.86
2019-01-10T22:59:05.987Z,100988.45
2019-01-10T23:01:48.696Z,100989.59
2019-01-10T23:04:26.645Z,100985.88
2019-01-10T23:06:54.749Z,100988.21
2019-01-10T23:09:23.110Z,100992.37
2019-01-10T23:11:51.791Z,100987.76
2019-01-10T23:14:19.832Z,100985.34
2019-01-10T23:16:48.018Z,100980.38
2019-01-10T23:19:16.070Z,100978.35
2019-01-10T23:21:44.095Z,100981.21
2019-01-10T23:24:19.208Z,100984.83
2019-01-10T23:26:54.454Z,100985.92
2019-01-10T23:29:32.108Z,100990.38
2019-01-10T23:32:06.813Z,100994.42
2019-01-10T23:34:34.888Z,100992.03
2019-01-10T23:37:03.391Z,100990.45
2019-01-10T23:39:31.426Z,100983.35
2019-01-10T23:41:59.456Z,100997.73
2019-01-10T23:44:27.518Z,100989.25
2019-01-10T23:46:55.794Z,100987.80
2019-01-10T23:49:23.839Z,100994.42
2019-01-10T23:51:51.852Z,101004.86
2019-01-10T23:54:19.903Z,101006.72
2019-01-10T23:56:47.900Z,101004.67
2019-01-10T23:59:15.903Z,101009.11
